createdAt,value
2023-02-19T00:05:44.715Z,45.11
2023-02-19T00:15:49.916Z,44.97
2023-02-19T00:25:55.446Z,45.18
2023-02-19T00:36:00.538Z,45.09
2023-02-19T00:46:05.665Z,44.98
2023-02-19T00:56:10.689Z,45.07
2023-02-19T01:06:16.156Z,45.32
2023-02-19T01:16:22.612Z,45.23
2023-02-19T01:26:27.939Z,45.36
2023-02-19T01:36:33.472Z,45.58
2023-02-19T01:46:38.716Z,45.67
2023-02-19T01:56:44.106Z,45.60
2023-02-19T02:06:48.952Z,45.77
2023-02-19T02:16:54.172Z,45.90
2023-02-19T02:26:59.636Z,45.80
2023-02-19T02:37:04.915Z,46.00
2023-02-19T02:47:10.378Z,46.13
2023-02-19T02:57:15.446Z,46.11
2023-02-19T03:07:20.959Z,46.33
2023-02-19T03:17:26.266Z,46.16
2023-02-19T03:27:31.191Z,46.40
2023-02-19T03:37:36.506Z,46.35
2023-02-19T03:47:41.817Z,46.41
2023-02-19T03:57:47.096Z,46.33
2023-02-19T04:07:52.377Z,46.19
2023-02-19T04:17:57.203Z,46.26
2023-02-19T04:28:02.314Z,46.08
2023-02-19T04:38:07.479Z,46.30
2023-02-19T04:48:12.435Z,46.19
2023-02-19T04:58:17.611Z,46.35
2023-02-19T05:08:22.893Z,46.15
2023-02-19T05:18:28.090Z,46.28
2023-02-19T05:28:33.353Z,46.13
2023-02-19T05:38:38.340Z,46.16
2023-02-19T05:48:43.500Z,46.29
2023-02-19T05:58:48.803Z,46.39
2023-02-19T06:08:54.001Z,46.05
2023-02-19T06:18:59.114Z,46.17
2023-02-19T06:29:04.571Z,46.21
2023-02-19T06:39:09.913Z,46.10
2023-02-19T06:49:15.002Z,46.09
2023-02-19T06:59:20.180Z,45.79
2023-02-19T07:09:25.214Z,46.10
2023-02-19T07:19:30.469Z,45.87
2023-02-19T07:29:36.073Z,45.93
2023-02-19T07:39:40.801Z,46.00
2023-02-19T07:49:46.093Z,45.93
2023-02-19T07:59:50.974Z,46.17
2023-02-19T08:09:56.445Z,46.20
2023-02-19T08:20:02.034Z,46.35
2023-02-19T08:30:08.479Z,45.48
2023-02-19T08:40:14.437Z,45.76
2023-02-19T08:50:19.878Z,45.62
2023-02-19T09:00:25.440Z,45.45
2023-02-19T09:10:30.915Z,45.27
2023-02-19T09:20:36.307Z,45.17
2023-02-19T09:30:41.998Z,45.15
2023-02-19T09:40:47.536Z,45.19
2023-02-19T09:50:52.869Z,45.26
2023-02-19T10:00:57.784Z,45.25
2023-02-19T10:11:03.119Z,45.21
2023-02-19T10:21:09.472Z,45.21
2023-02-19T10:31:18.836Z,45.18
2023-02-19T10:34:07.541Z,45.32
2023-02-19T10:34:14.879Z,45.33
2023-02-19T10:44:16.921Z,45.18
2023-02-19T10:54:22.553Z,45.16
2023-02-19T11:04:28.156Z,45.13
2023-02-19T11:14:34.040Z,45.10
2023-02-19T11:24:39.633Z,45.03
2023-02-19T11:34:45.192Z,44.91
2023-02-19T11:44:50.598Z,44.89
2023-02-19T11:54:56.099Z,44.92
2023-02-19T12:05:01.397Z,44.79
2023-02-19T12:15:06.803Z,44.98
2023-02-19T12:25:13.283Z,45.05
2023-02-19T12:35:18.609Z,44.89
2023-02-19T12:46:45.693Z,44.99
2023-02-19T12:56:50.917Z,44.96
2023-02-19T13:06:56.309Z,44.92
2023-02-19T13:17:01.757Z,45.00
2023-02-19T13:27:07.504Z,44.99
2023-02-19T13:37:13.089Z,44.92
2023-02-19T13:47:19.012Z,44.93
2023-02-19T13:57:24.552Z,44.82
2023-02-19T14:07:29.783Z,44.75
2023-02-19T14:17:35.318Z,44.65
2023-02-19T14:27:41.145Z,44.57
2023-02-19T14:37:46.076Z,44.46
2023-02-19T14:47:51.243Z,44.54
2023-02-19T14:57:56.556Z,44.50
2023-02-19T15:08:02.449Z,43.95
2023-02-19T15:18:08.196Z,43.77
2023-02-19T15:28:13.600Z,43.67
2023-02-19T15:38:21.091Z,43.60
2023-02-19T15:48:26.781Z,43.55
2023-02-19T15:58:32.379Z,43.52
2023-02-19T16:08:38.277Z,43.52
2023-02-19T16:18:43.558Z,43.48
2023-02-19T16:28:48.931Z,43.46
2023-02-19T16:38:54.066Z,43.43
2023-02-19T16:48:59.475Z,43.43
2023-02-19T16:59:04.551Z,43.43
2023-02-19T17:09:10.595Z,43.43
2023-02-19T17:19:16.098Z,43.39
2023-02-19T17:29:21.410Z,43.37
2023-02-19T17:39:26.780Z,43.40
2023-02-19T17:49:32.182Z,43.34
2023-02-19T17:59:37.780Z,43.33
2023-02-19T18:09:43.299Z,43.29
2023-02-19T18:19:48.465Z,43.32
2023-02-19T18:29:54.146Z,43.24
2023-02-19T18:39:59.328Z,43.21
2023-02-19T18:50:04.863Z,43.21
2023-02-19T19:00:10.290Z,43.21
2023-02-19T19:10:15.696Z,43.17
2023-02-19T19:20:21.665Z,43.12
2023-02-19T19:30:26.795Z,43.12
2023-02-19T19:40:32.163Z,43.07
2023-02-19T19:50:37.406Z,43.08
2023-02-19T20:00:42.675Z,43.03
2023-02-19T20:10:47.972Z,43.02
2023-02-19T20:20:54.035Z,43.04
2023-02-19T20:30:59.548Z,43.04
2023-02-19T20:41:05.435Z,43.02
2023-02-19T20:51:10.845Z,42.97
2023-02-19T21:01:16.204Z,42.98
2023-02-19T21:11:21.595Z,42.97
2023-02-19T21:21:27.250Z,42.98
2023-02-19T21:31:32.852Z,42.99
2023-02-19T21:41:38.485Z,43.02
2023-02-19T21:51:44.281Z,43.08
2023-02-19T22:01:49.764Z,43.05
2023-02-19T22:11:55.444Z,42.98
2023-02-19T22:22:00.582Z,42.93
2023-02-19T22:32:06.618Z,42.97
2023-02-19T22:42:12.254Z,42.96
2023-02-19T22:52:18.120Z,42.93
2023-02-19T23:02:23.907Z,42.96
2023-02-19T23:12:29.358Z,42.97
2023-02-19T23:22:34.515Z,43.00
2023-02-19T23:32:40.383Z,43.04
2023-02-19T23:42:46.046Z,43.07
2023-02-19T23:52:51.205Z,43.07
